Time;durP1;ratioP1;P1;durP2;ratioP2;P2;SDS_P1;SDS_P2;PMS_P1;PMS_P2;Temp;Humidity;BMP_temperature;BMP_pressure;BME280_temperature;BME280_humidity;BME280_pressure;Samples;Min_cycle;Max_cycle;Signal;HPM_P1;HPM_P2
2023/05/24 00:01:24;;;;;;;12.17;10.50;;;;;;;;;;745563;186;912409;-60
2023/05/24 00:03:45;;;;;;;16.10;10.43;;;;;;;;;;747187;186;920603;-58
2023/05/24 00:06:07;;;;;;;16.10;11.03;;;;;;;;;;752379;186;920660;-58
2023/05/24 00:08:33;;;;;;;13.57;10.87;;;;;;;;;;748367;185;920451;-58
2023/05/24 00:10:59;;;;;;;12.98;10.45;;;;;;;;;;747945;186;919711;-60
2023/05/24 00:13:25;;;;;;;15.00;12.07;;;;;;;;;;748106;185;919921;-58
2023/05/24 00:15:51;;;;;;;14.10;11.37;;;;;;;;;;755600;184;916593;-59
2023/05/24 00:18:17;;;;;;;12.10;10.80;;;;;;;;;;746710;186;919164;-58
2023/05/24 00:20:42;;;;;;;13.43;12.03;;;;;;;;;;743200;185;918815;-60
2023/05/24 00:23:08;;;;;;;16.03;11.83;;;;;;;;;;753637;185;817638;-58
2023/05/24 00:25:34;;;;;;;18.63;11.43;;;;;;;;;;743637;186;918536;-60
2023/05/24 00:28:00;;;;;;;15.17;12.30;;;;;;;;;;745886;186;1021566;-58
2023/05/24 00:30:26;;;;;;;19.03;12.30;;;;;;;;;;753983;186;919349;-58
2023/05/24 00:32:52;;;;;;;19.10;12.80;;;;;;;;;;752161;186;920507;-60
2023/05/24 00:35:17;;;;;;;15.50;12.30;;;;;;;;;;750673;186;919858;-58
2023/05/24 00:37:44;;;;;;;14.53;11.87;;;;;;;;;;752283;185;831221;-58
2023/05/24 00:40:09;;;;;;;17.47;12.50;;;;;;;;;;749439;186;917647;-58
2023/05/24 00:42:35;;;;;;;17.33;12.30;;;;;;;;;;746871;185;867778;-60
2023/05/24 00:45:01;;;;;;;14.10;12.13;;;;;;;;;;741929;188;870284;-60
2023/05/24 00:47:27;;;;;;;15.93;11.27;;;;;;;;;;752129;185;850037;-59
2023/05/24 00:49:53;;;;;;;22.27;14.40;;;;;;;;;;750705;186;919430;-60
2023/05/24 00:52:19;;;;;;;14.53;10.87;;;;;;;;;;742764;186;920137;-59
2023/05/24 00:54:45;;;;;;;12.90;10.60;;;;;;;;;;751156;186;915854;-59
2023/05/24 00:57:12;;;;;;;15.43;11.40;;;;;;;;;;752317;185;916844;-59
2023/05/24 00:59:37;;;;;;;22.90;15.67;;;;;;;;;;750983;186;916740;-59
2023/05/24 01:02:03;;;;;;;13.73;11.68;;;;;;;;;;747076;186;915082;-59
2023/05/24 01:04:31;;;;;;;21.03;11.80;;;;;;;;;;753657;185;915734;-60
2023/05/24 01:06:56;;;;;;;17.10;11.10;;;;;;;;;;747494;185;918274;-61
2023/05/24 01:09:35;;;;;;;14.77;11.40;;;;;;;;;;749156;185;920189;-61
2023/05/24 01:12:06;;;;;;;17.80;11.40;;;;;;;;;;741079;185;968351;-61
2023/05/24 01:14:35;;;;;;;17.80;11.80;;;;;;;;;;759141;183;921542;-61
2023/05/24 01:17:03;;;;;;;17.20;11.30;;;;;;;;;;744191;185;816791;-59
2023/05/24 01:19:33;;;;;;;17.40;12.00;;;;;;;;;;750222;185;917989;-61
2023/05/24 01:22:00;;;;;;;16.00;12.17;;;;;;;;;;750888;185;917238;-61
2023/05/24 01:24:27;;;;;;;16.27;12.37;;;;;;;;;;749964;185;859270;-59
2023/05/24 01:26:55;;;;;;;15.53;12.20;;;;;;;;;;750718;186;919642;-61
2023/05/24 01:29:21;;;;;;;15.10;12.27;;;;;;;;;;745571;186;919499;-59
2023/05/24 01:31:47;;;;;;;16.02;11.77;;;;;;;;;;754065;185;918162;-61
2023/05/24 01:34:13;;;;;;;13.80;11.20;;;;;;;;;;748609;185;918811;-59
2023/05/24 01:36:38;;;;;;;19.40;12.53;;;;;;;;;;747166;185;919376;-60
2023/05/24 01:39:04;;;;;;;16.20;11.63;;;;;;;;;;745943;186;918951;-59
2023/05/24 01:41:31;;;;;;;14.47;12.40;;;;;;;;;;756193;181;920573;-61
2023/05/24 01:43:59;;;;;;;14.60;10.77;;;;;;;;;;744505;185;918484;-61
2023/05/24 01:46:24;;;;;;;14.20;12.73;;;;;;;;;;743848;185;919272;-62
2023/05/24 01:49:07;;;;;;;17.47;12.87;;;;;;;;;;753741;185;920997;-61
2023/05/24 01:51:35;;;;;;;15.67;12.20;;;;;;;;;;756301;184;919312;-59
2023/05/24 01:54:00;;;;;;;17.70;14.07;;;;;;;;;;745334;184;912598;-59
2023/05/24 01:56:26;;;;;;;19.37;13.00;;;;;;;;;;748470;185;912505;-60
2023/05/24 01:58:52;;;;;;;16.02;13.80;;;;;;;;;;751267;186;817436;-61
2023/05/24 02:01:18;;;;;;;14.90;12.27;;;;;;;;;;753621;183;921195;-60
2023/05/24 02:03:44;;;;;;;19.00;12.93;;;;;;;;;;744870;185;922487;-61
2023/05/24 02:06:10;;;;;;;19.43;13.70;;;;;;;;;;744867;185;920111;-59
2023/05/24 02:08:36;;;;;;;14.57;12.47;;;;;;;;;;754280;186;919754;-59
2023/05/24 02:11:01;;;;;;;18.40;13.63;;;;;;;;;;752607;186;921640;-59
2023/05/24 02:13:27;;;;;;;21.90;13.43;;;;;;;;;;746267;185;919316;-61
2023/05/24 02:15:53;;;;;;;14.63;12.20;;;;;;;;;;754832;185;918415;-62
2023/05/24 02:18:19;;;;;;;14.20;12.50;;;;;;;;;;747536;185;919525;-61
2023/05/24 02:20:45;;;;;;;16.00;12.50;;;;;;;;;;745916;185;918970;-59
2023/05/24 02:23:11;;;;;;;23.83;12.63;;;;;;;;;;753044;185;1014903;-60
2023/05/24 02:25:37;;;;;;;14.80;12.63;;;;;;;;;;749660;185;914912;-62
2023/05/24 02:28:02;;;;;;;16.37;12.90;;;;;;;;;;751177;185;918689;-61
2023/05/24 02:30:28;;;;;;;18.50;13.40;;;;;;;;;;746556;185;916895;-62
2023/05/24 02:32:54;;;;;;;16.20;13.60;;;;;;;;;;751654;184;843202;-62
2023/05/24 02:35:20;;;;;;;16.97;15.17;;;;;;;;;;742885;185;1021575;-62
2023/05/24 02:37:46;;;;;;;14.10;12.60;;;;;;;;;;748440;186;1022408;-62
2023/05/24 02:40:12;;;;;;;20.30;14.10;;;;;;;;;;751364;185;919003;-61
2023/05/24 02:42:37;;;;;;;19.83;13.57;;;;;;;;;;745325;186;922071;-62
2023/05/24 02:45:04;;;;;;;16.73;13.35;;;;;;;;;;745702;186;918771;-59
2023/05/24 02:47:29;;;;;;;18.13;15.00;;;;;;;;;;753448;185;815489;-59
2023/05/24 02:49:55;;;;;;;18.53;14.60;;;;;;;;;;747797;185;921024;-62
2023/05/24 02:52:22;;;;;;;20.23;13.80;;;;;;;;;;750657;186;921244;-59
2023/05/24 02:54:47;;;;;;;16.80;13.17;;;;;;;;;;745142;185;919094;-59
2023/05/24 02:57:13;;;;;;;15.50;12.93;;;;;;;;;;747374;185;817203;-59
2023/05/24 02:59:39;;;;;;;18.63;13.23;;;;;;;;;;745274;185;919260;-59
2023/05/24 03:02:05;;;;;;;16.77;15.07;;;;;;;;;;744995;186;817200;-61
2023/05/24 03:04:30;;;;;;;14.97;12.63;;;;;;;;;;746406;186;918860;-62
2023/05/24 03:06:56;;;;;;;15.93;13.95;;;;;;;;;;744954;186;818653;-61
2023/05/24 03:09:22;;;;;;;15.33;13.17;;;;;;;;;;745129;186;916535;-61
2023/05/24 03:11:48;;;;;;;18.40;12.60;;;;;;;;;;749110;186;880365;-60
2023/05/24 03:14:16;;;;;;;20.50;12.40;;;;;;;;;;748436;185;915992;-62
2023/05/24 03:16:40;;;;;;;17.53;13.80;;;;;;;;;;746903;185;922086;-61
2023/05/24 03:19:06;;;;;;;19.87;13.77;;;;;;;;;;741637;187;919982;-61
2023/05/24 03:21:32;;;;;;;21.00;12.77;;;;;;;;;;745671;185;919594;-59
2023/05/24 03:23:57;;;;;;;16.70;13.93;;;;;;;;;;743665;186;919234;-61
2023/05/24 03:26:24;;;;;;;17.50;13.60;;;;;;;;;;749087;185;921245;-61
2023/05/24 03:28:51;;;;;;;17.13;13.90;;;;;;;;;;758825;185;920871;-59
2023/05/24 03:31:16;;;;;;;16.40;13.20;;;;;;;;;;744754;185;937934;-61
2023/05/24 03:33:42;;;;;;;16.50;13.57;;;;;;;;;;748229;185;873321;-59
2023/05/24 03:36:07;;;;;;;14.90;12.90;;;;;;;;;;755457;185;818128;-60
2023/05/24 03:38:33;;;;;;;15.40;12.47;;;;;;;;;;752991;185;920704;-59
2023/05/24 03:40:59;;;;;;;16.40;13.40;;;;;;;;;;744292;185;919002;-61
2023/05/24 03:43:25;;;;;;;15.20;12.87;;;;;;;;;;750162;185;909814;-62
2023/05/24 03:45:51;;;;;;;16.50;13.20;;;;;;;;;;743969;185;945148;-62
2023/05/24 03:48:19;;;;;;;17.47;13.17;;;;;;;;;;747166;185;915330;-59
2023/05/24 03:50:43;;;;;;;21.53;13.53;;;;;;;;;;751116;185;875367;-59
2023/05/24 03:53:08;;;;;;;15.40;13.83;;;;;;;;;;750970;186;913457;-59
2023/05/24 03:55:34;;;;;;;15.43;12.73;;;;;;;;;;742205;185;918901;-60
2023/05/24 03:58:00;;;;;;;17.13;13.20;;;;;;;;;;749758;185;919508;-59
2023/05/24 04:00:26;;;;;;;19.33;13.60;;;;;;;;;;755594;185;803140;-61
2023/05/24 04:02:52;;;;;;;19.80;13.40;;;;;;;;;;751829;185;917430;-59
2023/05/24 04:05:18;;;;;;;17.80;13.70;;;;;;;;;;749764;184;920919;-59
2023/05/24 04:07:45;;;;;;;18.00;13.60;;;;;;;;;;756111;185;918639;-61
2023/05/24 04:10:09;;;;;;;22.60;13.13;;;;;;;;;;743779;186;914211;-59
2023/05/24 04:12:35;;;;;;;14.67;12.50;;;;;;;;;;745952;185;920066;-59
2023/05/24 04:15:01;;;;;;;16.17;12.30;;;;;;;;;;744912;185;920769;-59
2023/05/24 04:17:29;;;;;;;21.77;12.83;;;;;;;;;;747026;185;918683;-60
2023/05/24 04:19:53;;;;;;;23.23;12.90;;;;;;;;;;744087;186;919336;-59
2023/05/24 04:22:19;;;;;;;20.97;10.57;;;;;;;;;;746581;185;919356;-62
2023/05/24 04:24:44;;;;;;;17.70;11.30;;;;;;;;;;756034;185;823040;-58
2023/05/24 04:27:11;;;;;;;11.07;9.57;;;;;;;;;;748533;186;920073;-58
2023/05/24 04:29:37;;;;;;;12.27;9.97;;;;;;;;;;752380;185;816514;-60
2023/05/24 04:32:03;;;;;;;11.17;9.87;;;;;;;;;;756388;185;918558;-59
2023/05/24 04:34:32;;;;;;;10.30;8.50;;;;;;;;;;748350;184;1021358;-58
2023/05/24 04:36:55;;;;;;;15.70;8.20;;;;;;;;;;747967;185;918952;-58
2023/05/24 04:39:21;;;;;;;17.70;8.80;;;;;;;;;;745309;185;916672;-58
2023/05/24 04:41:49;;;;;;;10.03;7.40;;;;;;;;;;753181;184;917535;-60
2023/05/24 04:44:12;;;;;;;10.07;8.87;;;;;;;;;;745027;185;919215;-58
2023/05/24 04:46:38;;;;;;;11.17;8.80;;;;;;;;;;746602;185;922414;-59
2023/05/24 04:49:04;;;;;;;10.23;8.77;;;;;;;;;;755688;184;918638;-60
2023/05/24 04:51:30;;;;;;;10.40;9.40;;;;;;;;;;748487;185;859244;-58
2023/05/24 04:53:56;;;;;;;12.98;8.68;;;;;;;;;;746225;185;922495;-59
2023/05/24 04:56:22;;;;;;;9.07;7.33;;;;;;;;;;756011;185;714686;-60
2023/05/24 04:58:47;;;;;;;9.50;7.70;;;;;;;;;;748505;185;919897;-59
2023/05/24 05:01:13;;;;;;;13.70;6.77;;;;;;;;;;749953;185;919339;-59
2023/05/24 05:03:39;;;;;;;9.93;7.30;;;;;;;;;;751606;185;817264;-57
2023/05/24 05:06:05;;;;;;;9.63;6.90;;;;;;;;;;744575;186;911984;-58
2023/05/24 05:08:31;;;;;;;7.70;6.70;;;;;;;;;;747728;186;619074;-59
2023/05/24 05:10:57;;;;;;;7.43;5.70;;;;;;;;;;751106;185;918957;-59
2023/05/24 05:13:22;;;;;;;5.93;5.33;;;;;;;;;;755474;186;919306;-59
2023/05/24 05:15:48;;;;;;;6.47;5.40;;;;;;;;;;750693;184;920011;-57
2023/05/24 05:18:15;;;;;;;7.82;5.78;;;;;;;;;;745915;186;921754;-59
2023/05/24 05:20:40;;;;;;;6.40;5.80;;;;;;;;;;750647;186;815160;-57
2023/05/24 05:23:06;;;;;;;7.43;6.10;;;;;;;;;;744834;186;893196;-57
2023/05/24 05:25:32;;;;;;;7.00;5.72;;;;;;;;;;751353;186;632650;-57
2023/05/24 05:27:58;;;;;;;11.70;7.07;;;;;;;;;;754471;185;629149;-58
2023/05/24 05:30:23;;;;;;;7.47;6.07;;;;;;;;;;750200;185;918418;-58
2023/05/24 05:32:49;;;;;;;6.90;4.70;;;;;;;;;;747861;185;915101;-58
2023/05/24 05:35:15;;;;;;;9.40;7.70;;;;;;;;;;746692;186;913619;-58
2023/05/24 05:37:41;;;;;;;6.60;5.77;;;;;;;;;;751979;185;921190;-59
2023/05/24 05:40:07;;;;;;;7.93;6.30;;;;;;;;;;749982;185;921704;-57
2023/05/24 05:42:33;;;;;;;9.10;5.67;;;;;;;;;;749962;186;921739;-58
2023/05/24 05:44:59;;;;;;;11.40;7.40;;;;;;;;;;755229;185;814926;-58
2023/05/24 05:47:25;;;;;;;11.90;6.83;;;;;;;;;;748991;185;817407;-57
2023/05/24 05:49:50;;;;;;;27.30;13.53;;;;;;;;;;750969;184;819625;-59
2023/05/24 05:52:16;;;;;;;22.27;12.00;;;;;;;;;;749819;185;914360;-73
2023/05/24 05:54:42;;;;;;;14.13;9.97;;;;;;;;;;716056;194;919411;-72
2023/05/24 05:57:10;;;;;;;10.57;6.13;;;;;;;;;;709556;195;917863;-73
2023/05/24 05:59:34;;;;;;;9.67;6.50;;;;;;;;;;719263;194;1070432;-74
2023/05/24 06:02:00;;;;;;;10.20;8.17;;;;;;;;;;710719;193;916008;-72
2023/05/24 06:04:26;;;;;;;13.97;7.90;;;;;;;;;;704179;195;918615;-73
2023/05/24 06:06:51;;;;;;;11.23;6.87;;;;;;;;;;715189;194;921301;-74
2023/05/24 06:09:17;;;;;;;7.73;6.70;;;;;;;;;;714995;195;1019449;-74
2023/05/24 06:11:43;;;;;;;10.53;8.20;;;;;;;;;;715361;193;924582;-73
2023/05/24 06:14:10;;;;;;;7.83;6.47;;;;;;;;;;709469;195;917372;-73
2023/05/24 06:16:40;;;;;;;9.83;5.97;;;;;;;;;;715581;195;814438;-74
2023/05/24 06:19:01;;;;;;;7.53;5.30;;;;;;;;;;708024;195;916487;-74
2023/05/24 06:21:28;;;;;;;6.43;4.93;;;;;;;;;;711996;195;918885;-73
2023/05/24 06:23:53;;;;;;;4.77;3.90;;;;;;;;;;715729;194;916628;-74
2023/05/24 06:26:20;;;;;;;6.40;4.50;;;;;;;;;;704803;196;934572;-74
2023/05/24 06:28:44;;;;;;;4.80;3.50;;;;;;;;;;709280;195;924909;-73
2023/05/24 06:31:10;;;;;;;4.60;3.47;;;;;;;;;;707989;196;925018;-75
2023/05/24 06:33:36;;;;;;;3.70;2.80;;;;;;;;;;712065;196;817782;-74
2023/05/24 06:36:02;;;;;;;5.97;2.57;;;;;;;;;;707417;198;907005;-74
2023/05/24 06:38:28;;;;;;;3.67;2.17;;;;;;;;;;707131;198;908581;-73
2023/05/24 06:40:54;;;;;;;3.73;2.00;;;;;;;;;;723152;194;913318;-74
2023/05/24 06:43:20;;;;;;;2.33;1.67;;;;;;;;;;706841;195;915808;-73
2023/05/24 06:45:45;;;;;;;3.37;2.37;;;;;;;;;;707674;195;911714;-73
2023/05/24 06:48:11;;;;;;;3.30;2.20;;;;;;;;;;719851;193;912796;-73
2023/05/24 06:50:37;;;;;;;2.83;2.10;;;;;;;;;;707322;193;918485;-73
2023/05/24 06:53:03;;;;;;;6.03;1.93;;;;;;;;;;707950;196;912139;-73
2023/05/24 06:55:29;;;;;;;4.40;2.13;;;;;;;;;;704408;195;1014666;-73
2023/05/24 06:57:55;;;;;;;2.60;1.80;;;;;;;;;;717112;191;919976;-74
2023/05/24 07:00:21;;;;;;;4.20;1.90;;;;;;;;;;713546;194;919939;-73
2023/05/24 07:02:47;;;;;;;3.10;1.90;;;;;;;;;;713455;194;809757;-73
2023/05/24 07:05:13;;;;;;;3.17;2.17;;;;;;;;;;713980;195;861837;-73
2023/05/24 07:07:39;;;;;;;3.40;2.20;;;;;;;;;;717175;194;897592;-73
2023/05/24 07:10:07;;;;;;;4.33;3.43;;;;;;;;;;708262;194;919165;-73
2023/05/24 07:12:32;;;;;;;3.60;1.90;;;;;;;;;;714100;195;921210;-72
2023/05/24 07:14:58;;;;;;;4.80;2.20;;;;;;;;;;712084;195;918251;-72
2023/05/24 07:17:24;;;;;;;5.63;2.33;;;;;;;;;;717286;194;919743;-72
2023/05/24 07:19:50;;;;;;;4.00;2.77;;;;;;;;;;710207;195;918545;-72
2023/05/24 07:22:16;;;;;;;9.80;3.07;;;;;;;;;;717262;194;815555;-73
2023/05/24 07:24:42;;;;;;;6.03;2.80;;;;;;;;;;712762;194;918804;-73
2023/05/24 07:27:08;;;;;;;3.80;2.30;;;;;;;;;;710855;195;918947;-72
2023/05/24 07:29:34;;;;;;;4.90;2.80;;;;;;;;;;713212;195;921391;-73
2023/05/24 07:32:00;;;;;;;3.60;2.90;;;;;;;;;;710097;195;919718;-73
2023/05/24 07:34:28;;;;;;;3.40;2.20;;;;;;;;;;708368;195;813789;-72
2023/05/24 07:36:52;;;;;;;5.70;2.47;;;;;;;;;;714094;195;813032;-73
2023/05/24 07:39:17;;;;;;;5.07;2.40;;;;;;;;;;713117;195;915727;-73
2023/05/24 07:41:43;;;;;;;4.70;2.30;;;;;;;;;;708924;195;916451;-73
2023/05/24 07:44:10;;;;;;;6.77;2.90;;;;;;;;;;713132;195;919529;-73
2023/05/24 07:46:36;;;;;;;5.40;2.47;;;;;;;;;;714315;194;918579;-72
2023/05/24 07:49:01;;;;;;;3.63;2.57;;;;;;;;;;716752;194;927552;-73
2023/05/24 07:51:27;;;;;;;4.93;2.33;;;;;;;;;;709313;195;918183;-73
2023/05/24 07:53:53;;;;;;;3.90;2.50;;;;;;;;;;715960;195;815443;-73
2023/05/24 07:56:20;;;;;;;4.93;2.33;;;;;;;;;;708456;195;953585;-73
2023/05/24 07:58:45;;;;;;;4.45;2.72;;;;;;;;;;720451;193;919492;-73
2023/05/24 08:01:11;;;;;;;3.17;2.37;;;;;;;;;;719703;194;918001;-73
2023/05/24 08:03:36;;;;;;;8.00;2.30;;;;;;;;;;708008;196;917981;-73
2023/05/24 08:06:02;;;;;;;3.37;2.80;;;;;;;;;;707054;195;915356;-73
2023/05/24 08:08:28;;;;;;;5.97;3.10;;;;;;;;;;716145;195;919897;-73
2023/05/24 08:10:54;;;;;;;4.57;3.03;;;;;;;;;;704774;195;917506;-73
2023/05/24 08:13:20;;;;;;;5.73;2.97;;;;;;;;;;708262;194;1022218;-72
2023/05/24 08:15:46;;;;;;;5.23;2.97;;;;;;;;;;709313;195;1021783;-73
2023/05/24 08:18:11;;;;;;;4.13;2.50;;;;;;;;;;716986;194;918517;-73
2023/05/24 08:20:37;;;;;;;5.00;3.00;;;;;;;;;;715029;194;914912;-73
2023/05/24 08:23:03;;;;;;;5.63;2.90;;;;;;;;;;708917;195;917635;-73
2023/05/24 08:25:29;;;;;;;3.87;2.50;;;;;;;;;;706072;196;916962;-73
2023/05/24 08:27:56;;;;;;;3.83;2.80;;;;;;;;;;712150;195;918504;-73
2023/05/24 08:30:21;;;;;;;4.63;3.30;;;;;;;;;;709127;195;918457;-72
2023/05/24 08:32:47;;;;;;;5.00;3.23;;;;;;;;;;714973;195;918157;-73
2023/05/24 08:35:12;;;;;;;5.40;3.67;;;;;;;;;;711183;195;1024962;-73
2023/05/24 08:37:38;;;;;;;6.47;2.80;;;;;;;;;;709643;195;918982;-72
2023/05/24 08:40:08;;;;;;;4.20;2.78;;;;;;;;;;712770;195;1020401;-73
2023/05/24 08:42:31;;;;;;;4.37;2.43;;;;;;;;;;717208;193;919118;-73
2023/05/24 08:44:58;;;;;;;5.17;3.50;;;;;;;;;;717374;194;917524;-73
2023/05/24 08:47:24;;;;;;;7.40;3.00;;;;;;;;;;706153;196;918681;-73
2023/05/24 08:49:49;;;;;;;6.07;2.70;;;;;;;;;;714718;195;816521;-73
2023/05/24 08:52:16;;;;;;;3.50;2.60;;;;;;;;;;712773;195;919621;-73
2023/05/24 08:54:41;;;;;;;4.97;2.83;;;;;;;;;;709776;195;918111;-72
2023/05/24 08:57:07;;;;;;;3.13;2.43;;;;;;;;;;711577;197;828187;-73
2023/05/24 08:59:33;;;;;;;5.30;2.90;;;;;;;;;;709529;195;816531;-73
2023/05/24 09:01:59;;;;;;;5.70;2.73;;;;;;;;;;710360;195;917737;-73
2023/05/24 09:04:25;;;;;;;5.23;3.50;;;;;;;;;;711472;195;818324;-73
2023/05/24 09:06:51;;;;;;;4.80;3.10;;;;;;;;;;712421;195;909999;-73
2023/05/24 09:09:17;;;;;;;5.57;3.13;;;;;;;;;;715594;194;919049;-73
2023/05/24 09:11:42;;;;;;;5.57;3.30;;;;;;;;;;709354;195;919306;-72
2023/05/24 09:14:08;;;;;;;4.33;2.43;;;;;;;;;;711111;195;918831;-73
2023/05/24 09:16:34;;;;;;;4.40;2.97;;;;;;;;;;709524;193;1020047;-73
2023/05/24 09:19:00;;;;;;;5.20;2.77;;;;;;;;;;709386;193;1225585;-73
2023/05/24 09:21:26;;;;;;;4.77;2.90;;;;;;;;;;709653;196;1019451;-73
2023/05/24 09:23:52;;;;;;;4.80;3.57;;;;;;;;;;706450;194;914482;-73
2023/05/24 09:26:17;;;;;;;5.97;3.20;;;;;;;;;;711834;194;816498;-73
2023/05/24 09:28:43;;;;;;;5.07;3.40;;;;;;;;;;713829;196;861522;-73
2023/05/24 09:31:09;;;;;;;6.40;2.83;;;;;;;;;;708167;196;917619;-73
2023/05/24 09:33:35;;;;;;;7.63;3.57;;;;;;;;;;714597;194;919287;-73
2023/05/24 09:36:01;;;;;;;3.97;2.73;;;;;;;;;;705624;196;1016385;-72
2023/05/24 09:38:27;;;;;;;5.17;3.43;;;;;;;;;;719340;193;918335;-73
2023/05/24 09:40:56;;;;;;;6.20;3.60;;;;;;;;;;711646;194;918637;-73
2023/05/24 09:43:22;;;;;;;4.73;2.90;;;;;;;;;;707897;196;1023590;-72
2023/05/24 09:45:48;;;;;;;5.87;3.97;;;;;;;;;;713156;195;918241;-72
2023/05/24 09:48:15;;;;;;;3.63;3.00;;;;;;;;;;707081;195;918196;-72
2023/05/24 09:50:40;;;;;;;4.93;3.30;;;;;;;;;;708815;195;846859;-72
2023/05/24 09:53:06;;;;;;;4.57;2.77;;;;;;;;;;714003;195;918267;-72
2023/05/24 09:55:32;;;;;;;4.70;3.37;;;;;;;;;;710845;195;842635;-72
2023/05/24 09:58:01;;;;;;;5.63;3.43;;;;;;;;;;710722;195;815287;-73
2023/05/24 10:00:26;;;;;;;5.53;4.13;;;;;;;;;;707171;195;918563;-72
2023/05/24 10:02:58;;;;;;;8.83;3.40;;;;;;;;;;713382;195;961829;-73
2023/05/24 10:05:24;;;;;;;13.23;4.43;;;;;;;;;;726093;186;914783;-60
2023/05/24 10:07:50;;;;;;;4.70;4.17;;;;;;;;;;746652;186;919831;-61
2023/05/24 10:10:15;;;;;;;6.73;3.73;;;;;;;;;;731376;186;919470;-60
2023/05/24 10:12:45;;;;;;;6.37;4.13;;;;;;;;;;742328;183;880395;-58
2023/05/24 10:15:08;;;;;;;5.00;4.03;;;;;;;;;;744320;183;918422;-60
2023/05/24 10:17:34;;;;;;;5.43;4.13;;;;;;;;;;751271;184;859864;-58
2023/05/24 10:20:00;;;;;;;6.10;3.77;;;;;;;;;;743877;187;892491;-58
2023/05/24 10:22:26;;;;;;;5.20;4.70;;;;;;;;;;740314;187;920083;-60
2023/05/24 10:24:52;;;;;;;6.18;4.32;;;;;;;;;;739350;187;1016848;-58
2023/05/24 10:27:17;;;;;;;7.37;4.97;;;;;;;;;;737650;187;919674;-62
2023/05/24 10:29:44;;;;;;;4.57;4.07;;;;;;;;;;737929;187;912894;-59
2023/05/24 10:32:09;;;;;;;6.83;5.43;;;;;;;;;;742501;187;918616;-61
2023/05/24 10:34:36;;;;;;;5.55;4.50;;;;;;;;;;740846;186;919726;-61
2023/05/24 10:37:01;;;;;;;5.00;4.00;;;;;;;;;;753777;186;919289;-61
2023/05/24 10:39:27;;;;;;;6.30;4.50;;;;;;;;;;744093;186;914761;-58
2023/05/24 10:41:56;;;;;;;6.53;4.80;;;;;;;;;;741081;188;918943;-61
2023/05/24 10:44:23;;;;;;;5.53;4.57;;;;;;;;;;743261;187;917267;-58
2023/05/24 10:46:53;;;;;;;8.57;5.10;;;;;;;;;;741255;187;919485;-61
2023/05/24 10:49:19;;;;;;;6.75;4.12;;;;;;;;;;739647;187;916123;-58
2023/05/24 10:51:45;;;;;;;5.90;4.10;;;;;;;;;;738638;187;918143;-61
2023/05/24 10:54:11;;;;;;;5.75;4.87;;;;;;;;;;740930;188;920665;-58
2023/05/24 10:56:39;;;;;;;5.50;4.80;;;;;;;;;;735814;188;920092;-58
2023/05/24 10:59:05;;;;;;;6.90;4.07;;;;;;;;;;730262;191;922736;-58
2023/05/24 11:01:30;;;;;;;11.03;5.20;;;;;;;;;;737539;189;918578;-60
2023/05/24 11:04:02;;;;;;;5.60;4.50;;;;;;;;;;729306;191;1020474;-58
2023/05/24 11:06:34;;;;;;;6.90;4.17;;;;;;;;;;728812;190;918564;-60
2023/05/24 11:09:00;;;;;;;4.80;3.90;;;;;;;;;;734823;188;919757;-60
2023/05/24 11:11:26;;;;;;;7.33;4.97;;;;;;;;;;740253;188;918933;-62
2023/05/24 11:13:51;;;;;;;5.90;4.93;;;;;;;;;;735540;188;923004;-61
2023/05/24 11:16:35;;;;;;;6.93;5.13;;;;;;;;;;740478;187;918728;-61
2023/05/24 11:19:00;;;;;;;5.63;5.03;;;;;;;;;;734890;187;919906;-59
2023/05/24 11:21:26;;;;;;;26.53;6.10;;;;;;;;;;739791;188;817140;-59
2023/05/24 11:23:52;;;;;;;8.93;5.47;;;;;;;;;;738523;187;916218;-58
2023/05/24 11:26:17;;;;;;;10.00;5.73;;;;;;;;;;742336;187;816259;-59
2023/05/24 11:28:43;;;;;;;8.50;6.53;;;;;;;;;;738594;188;816930;-61
2023/05/24 11:31:09;;;;;;;11.67;6.50;;;;;;;;;;736034;186;916283;-59
2023/05/24 11:33:35;;;;;;;6.90;6.20;;;;;;;;;;732856;187;919309;-61
2023/05/24 11:36:01;;;;;;;10.63;6.70;;;;;;;;;;737661;187;915976;-60
2023/05/24 11:38:27;;;;;;;6.80;6.10;;;;;;;;;;743542;187;917750;-58
2023/05/24 11:40:52;;;;;;;10.27;7.23;;;;;;;;;;737945;187;844975;-58
2023/05/24 11:43:18;;;;;;;9.70;7.33;;;;;;;;;;740814;187;918569;-60
2023/05/24 11:45:44;;;;;;;8.47;7.10;;;;;;;;;;741010;187;853552;-58
2023/05/24 11:48:10;;;;;;;8.63;6.20;;;;;;;;;;742392;186;917668;-58
2023/05/24 11:50:36;;;;;;;7.47;6.20;;;;;;;;;;746103;186;919216;-58
2023/05/24 11:53:02;;;;;;;10.68;6.57;;;;;;;;;;743313;188;918674;-60
2023/05/24 11:55:29;;;;;;;8.13;7.33;;;;;;;;;;726711;190;814518;-60
2023/05/24 11:57:54;;;;;;;7.23;6.20;;;;;;;;;;741534;186;921364;-59
2023/05/24 12:00:23;;;;;;;7.37;6.30;;;;;;;;;;736271;188;913625;-58
2023/05/24 12:02:49;;;;;;;8.23;5.50;;;;;;;;;;743937;187;814874;-61
2023/05/24 12:05:14;;;;;;;8.20;6.87;;;;;;;;;;737325;187;919267;-59
2023/05/24 12:07:43;;;;;;;7.67;6.97;;;;;;;;;;736847;187;916915;-61
2023/05/24 12:10:07;;;;;;;7.93;7.07;;;;;;;;;;746471;187;817361;-58
2023/05/24 12:12:32;;;;;;;12.43;8.77;;;;;;;;;;741489;187;918638;-60
2023/05/24 12:14:58;;;;;;;7.80;5.30;;;;;;;;;;739020;184;920408;-62
2023/05/24 12:17:24;;;;;;;9.07;7.80;;;;;;;;;;740175;187;918576;-61
2023/05/24 12:19:50;;;;;;;10.50;7.20;;;;;;;;;;735627;186;920145;-58
2023/05/24 12:22:15;;;;;;;12.13;8.33;;;;;;;;;;742967;186;947852;-60
2023/05/24 12:24:41;;;;;;;10.80;7.80;;;;;;;;;;737742;187;920765;-59
2023/05/24 12:27:08;;;;;;;10.77;8.90;;;;;;;;;;745334;187;918773;-60
2023/05/24 12:29:33;;;;;;;10.23;7.83;;;;;;;;;;735006;187;919963;-59
2023/05/24 12:31:59;;;;;;;10.93;8.67;;;;;;;;;;735271;188;912822;-60
2023/05/24 12:34:25;;;;;;;10.00;8.33;;;;;;;;;;742002;187;814948;-59
2023/05/24 12:36:51;;;;;;;13.60;8.80;;;;;;;;;;740357;187;912012;-59
2023/05/24 12:39:19;;;;;;;14.10;11.47;;;;;;;;;;738762;187;919310;-59
2023/05/24 12:41:45;;;;;;;12.83;9.50;;;;;;;;;;741308;187;816994;-61
2023/05/24 12:44:11;;;;;;;13.43;10.30;;;;;;;;;;734203;190;917478;-59
2023/05/24 12:46:37;;;;;;;13.17;10.00;;;;;;;;;;741456;187;915436;-59
2023/05/24 12:49:03;;;;;;;11.37;7.53;;;;;;;;;;735616;187;917629;-61
2023/05/24 12:51:28;;;;;;;12.00;8.10;;;;;;;;;;743225;186;942343;-62
2023/05/24 12:53:54;;;;;;;11.63;9.63;;;;;;;;;;736507;187;919649;-62
2023/05/24 12:56:21;;;;;;;11.63;9.10;;;;;;;;;;730695;190;919296;-61
2023/05/24 12:58:46;;;;;;;12.50;7.60;;;;;;;;;;746187;187;916067;-59
2023/05/24 13:01:12;;;;;;;10.13;9.07;;;;;;;;;;741151;187;920255;-60
2023/05/24 13:03:38;;;;;;;11.03;7.13;;;;;;;;;;746608;186;921424;-60
2023/05/24 13:06:05;;;;;;;10.87;8.23;;;;;;;;;;745098;186;918602;-61
2023/05/24 13:08:30;;;;;;;12.23;9.60;;;;;;;;;;751454;186;920474;-59
2023/05/24 13:10:56;;;;;;;10.93;9.07;;;;;;;;;;746489;183;914820;-61
2023/05/24 13:13:23;;;;;;;14.67;7.87;;;;;;;;;;741898;187;854206;-62
2023/05/24 13:15:47;;;;;;;12.30;8.93;;;;;;;;;;751374;186;918148;-61
2023/05/24 13:18:13;;;;;;;11.80;8.13;;;;;;;;;;740569;187;918781;-61
2023/05/24 13:20:39;;;;;;;12.90;8.63;;;;;;;;;;739693;187;889305;-62
2023/05/24 13:23:05;;;;;;;11.63;9.13;;;;;;;;;;745502;187;817452;-62
2023/05/24 13:25:31;;;;;;;9.20;7.90;;;;;;;;;;743204;187;916631;-61
2023/05/24 13:27:57;;;;;;;9.10;7.70;;;;;;;;;;738739;187;919254;-59
2023/05/24 13:30:26;;;;;;;9.23;7.37;;;;;;;;;;743374;187;920222;-62
2023/05/24 13:32:48;;;;;;;8.88;7.35;;;;;;;;;;738493;188;919289;-59
2023/05/24 13:35:14;;;;;;;13.90;6.90;;;;;;;;;;739782;187;916776;-59
2023/05/24 13:37:40;;;;;;;8.33;6.47;;;;;;;;;;737055;188;920614;-62
2023/05/24 13:40:06;;;;;;;11.80;7.67;;;;;;;;;;746499;187;921367;-63
2023/05/24 13:42:32;;;;;;;13.43;9.35;;;;;;;;;;739173;187;918456;-62
2023/05/24 13:44:58;;;;;;;9.50;7.23;;;;;;;;;;736250;187;917590;-59
2023/05/24 13:47:25;;;;;;;9.67;6.97;;;;;;;;;;742752;187;818220;-60
2023/05/24 13:49:50;;;;;;;13.82;7.97;;;;;;;;;;741257;187;810568;-60
2023/05/24 13:52:16;;;;;;;8.90;7.10;;;;;;;;;;737594;187;822305;-59
2023/05/24 13:54:42;;;;;;;12.10;7.90;;;;;;;;;;747278;187;620230;-63
2023/05/24 13:57:07;;;;;;;10.20;6.83;;;;;;;;;;743911;188;917200;-62
2023/05/24 13:59:33;;;;;;;9.90;7.00;;;;;;;;;;740386;187;849929;-60
2023/05/24 14:01:59;;;;;;;10.20;7.23;;;;;;;;;;737791;187;917467;-60
2023/05/24 14:04:25;;;;;;;8.47;6.80;;;;;;;;;;746512;184;909768;-59
2023/05/24 14:06:51;;;;;;;7.73;5.23;;;;;;;;;;753556;183;919365;-60
2023/05/24 14:09:17;;;;;;;9.37;7.87;;;;;;;;;;744636;186;919391;-62
2023/05/24 14:11:44;;;;;;;10.73;6.90;;;;;;;;;;747838;186;836668;-65